Terminal Aerodrome Forecast
Issued by NWS Wilmington, OH

Current Version | Previous Version | Graphics & Text | Print | Product List | Glossary On
Versions: 1 2 3 4 5 6 7 8 9 10 11 12 13 14 15 16 17 18 19 20 21 22 23 24 25 26 27 28 29 30 31 32 33 34
000
FTUS41 KILN 280713 AAA
TAFCVG
TAF AMD
KCVG 280713Z 2807/2912 08004KT 1 1/2SM BR OVC002
     FM281400 12005KT 3SM BR OVC005
     FM281500 23006KT P6SM OVC012
     FM281700 25008KT P6SM VCTS BKN040CB
     FM282100 27009KT P6SM SCT050
     FM290800 28004KT P6SM OVC012=

USA.gov is the U.S. government's official web portal to all federal, state and local government web resources and services.